Appleton, Maine
Current Conditions -  °F | °C
As of 1:35 PM on Monday 26 Jan 2015 (Local Time) from KRKD Reporting Station
Clear Clear  
Wind Chill:   Ceiling: Unl
Heat Index: 16°   Visibility: 10mi
Dew Point:   Wind: 7mph
Humidity: 58%   Direction: 30°NNE
Pressure: 30.17"   Gusts: NA
Location:  44.2596°N, 69.2573°W
Report Text: KRKD 261835Z AUTO 03006KT 10SM CLR M09/M16 A3017 RMK AO1
Loading
Personal Weather Stations






























Interactive Weather Map New forecast layout! Learn more

10-Day Weather Forecast

Advertisements
Track Severe Weather on mobile